Terminal Aerodrome Forecast
Issued by NWS Cleveland, OH

Home | Current Version | Previous Version | Graphics & Text | Print | Product List | Glossary Off
Versions: 1 2 3 4 5 6 7 8 9 10 11 12 13 14 15 16

000
FTUS41 KCLE 060530
TAFMFD
TAF
KMFD 060530Z 0606/0706 33004KT P6SM SCT100
      TEMPO 0609/0613 4SM BR
     FM061400 34010G18KT P6SM FEW250
     FM062300 35004KT P6SM FEW250=

USA.gov is the U.S. government's official web portal to all federal, state and local government web resources and services.